Time;durP1;ratioP1;P1;durP2;ratioP2;P2;SDS_P1;SDS_P2;PMS_P1;PMS_P2;Temp;Humidity;BMP_temperature;BMP_pressure;BME280_temperature;BME280_humidity;BME280_pressure;Samples;Min_cycle;Max_cycle;Signal;HPM_P1;HPM_P2
2021/10/19 00:02:17;;;;;;;;;;;3.80;99.90;;;;;;5093480;28;19944;-74
2021/10/19 00:04:43;;;;;;;;;;;3.70;99.90;;;;;;5093506;28;19908;-74
2021/10/19 00:07:08;;;;;;;;;;;3.60;99.90;;;;;;5088300;28;20026;-74
2021/10/19 00:09:34;;;;;;;;;;;3.50;99.90;;;;;;5093465;28;19908;-74
2021/10/19 00:11:59;;;;;;;;;;;3.30;99.90;;;;;;5093493;28;19943;-74
2021/10/19 00:14:25;;;;;;;;;;;3.30;99.90;;;;;;5093239;28;19908;-73
2021/10/19 00:16:50;;;;;;;;;;;3.30;99.90;;;;;;5093492;28;19951;-74
2021/10/19 00:19:16;;;;;;;;;;;3.30;99.90;;;;;;5093524;28;20352;-74
2021/10/19 00:21:42;;;;;;;;;;;3.30;99.90;;;;;;5092950;28;19934;-74
2021/10/19 00:24:07;;;;;;;;;;;3.30;99.90;;;;;;5092630;28;19952;-74
2021/10/19 00:26:33;;;;;;;;;;;3.30;99.90;;;;;;5093082;28;19926;-74
2021/10/19 00:28:58;;;;;;;;;;;3.30;99.90;;;;;;5093255;28;19931;-74
2021/10/19 00:31:23;;;;;;;;;;;3.20;99.90;;;;;;5092819;28;20495;-74
2021/10/19 00:33:49;;;;;;;;;;;3.20;99.90;;;;;;5092665;28;19908;-73
2021/10/19 00:36:14;;;;;;;;;;;3.40;99.90;;;;;;5091151;28;19908;-74
2021/10/19 00:38:40;;;;;;;;;;;3.60;99.90;;;;;;5088382;28;19961;-74
2021/10/19 00:41:06;;;;;;;;;;;3.90;99.90;;;;;;5092865;28;19909;-74
2021/10/19 00:43:31;;;;;;;;;;;4.10;99.90;;;;;;5092388;28;20279;-74
2021/10/19 00:45:56;;;;;;;;;;;4.00;99.90;;;;;;5092494;28;19915;-74
2021/10/19 00:48:25;;;;;;;;;;;3.60;99.90;;;;;;5092921;28;19908;-74
2021/10/19 00:50:52;;;;;;;;;;;3.40;99.90;;;;;;5092954;28;20308;-75
2021/10/19 00:53:18;;;;;;;;;;;3.40;99.90;;;;;;5092206;28;19999;-74
2021/10/19 00:55:43;;;;;;;;;;;3.20;99.90;;;;;;5092579;28;20007;-74
2021/10/19 00:58:09;;;;;;;;;;;3.10;99.90;;;;;;5091263;28;19912;-75
2021/10/19 01:00:35;;;;;;;;;;;3.10;99.90;;;;;;5092470;28;19912;-74
2021/10/19 01:03:01;;;;;;;;;;;3.20;99.90;;;;;;5091993;28;19931;-74
2021/10/19 01:05:26;;;;;;;;;;;3.30;99.90;;;;;;5092452;28;20049;-74
2021/10/19 01:07:52;;;;;;;;;;;3.20;99.90;;;;;;5086819;28;19963;-72
2021/10/19 01:10:18;;;;;;;;;;;3.20;99.90;;;;;;5092380;28;20352;-75
2021/10/19 01:12:43;;;;;;;;;;;3.20;99.90;;;;;;5091946;28;20360;-74
2021/10/19 01:15:10;;;;;;;;;;;3.20;99.90;;;;;;5092014;28;19912;-74
2021/10/19 01:17:42;;;;;;;;;;;3.40;99.90;;;;;;5090720;28;19908;-74
2021/10/19 01:20:24;;;;;;;;;;;3.40;99.90;;;;;;5090897;28;19908;-73
2021/10/19 01:22:50;;;;;;;;;;;3.30;99.90;;;;;;5091587;28;19998;-74
2021/10/19 01:25:16;;;;;;;;;;;3.30;99.90;;;;;;5092020;28;19992;-74
2021/10/19 01:27:49;;;;;;;;;;;3.40;99.90;;;;;;5091903;28;19915;-74
2021/10/19 01:30:14;;;;;;;;;;;3.30;99.90;;;;;;5092209;28;19951;-73
2021/10/19 01:32:40;;;;;;;;;;;3.30;99.90;;;;;;5089852;28;19955;-74
2021/10/19 01:35:06;;;;;;;;;;;3.30;99.90;;;;;;5091837;28;19915;-74
2021/10/19 01:37:32;;;;;;;;;;;3.30;99.90;;;;;;5085289;28;19951;-74
2021/10/19 01:39:57;;;;;;;;;;;3.40;99.90;;;;;;5091475;28;19948;-74
2021/10/19 01:42:23;;;;;;;;;;;3.50;99.90;;;;;;5091485;28;19930;-73
2021/10/19 01:44:48;;;;;;;;;;;3.60;99.90;;;;;;5091623;28;19911;-74
2021/10/19 01:47:14;;;;;;;;;;;3.80;99.90;;;;;;5091963;28;19912;-74
2021/10/19 01:49:39;;;;;;;;;;;3.90;99.90;;;;;;5091588;28;19908;-74
2021/10/19 01:52:05;;;;;;;;;;;4.00;99.90;;;;;;5091565;28;20007;-74
2021/10/19 01:54:30;;;;;;;;;;;3.90;99.90;;;;;;5091175;28;19915;-74
2021/10/19 01:56:56;;;;;;;;;;;4.00;99.90;;;;;;5091538;28;19915;-74
2021/10/19 01:59:21;;;;;;;;;;;4.00;99.90;;;;;;5091458;28;20376;-72
2021/10/19 02:01:48;;;;;;;;;;;4.10;99.90;;;;;;5091527;28;19912;-74
2021/10/19 02:04:14;;;;;;;;;;;4.40;99.90;;;;;;5090907;28;19961;-74
2021/10/19 02:06:40;;;;;;;;;;;4.60;99.90;;;;;;5087281;28;20444;-74
2021/10/19 02:09:05;;;;;;;;;;;4.60;99.90;;;;;;5089757;28;19933;-74
2021/10/19 02:11:31;;;;;;;;;;;4.50;99.90;;;;;;5091399;28;19999;-74
2021/10/19 02:13:57;;;;;;;;;;;4.50;99.90;;;;;;5090823;28;19931;-74
2021/10/19 02:16:22;;;;;;;;;;;4.60;99.90;;;;;;5091745;28;20388;-74
2021/10/19 02:18:48;;;;;;;;;;;4.70;99.90;;;;;;5091293;28;19998;-73
2021/10/19 02:21:13;;;;;;;;;;;4.80;99.90;;;;;;5091243;28;19916;-74
2021/10/19 02:23:39;;;;;;;;;;;4.80;99.90;;;;;;5090966;28;19934;-75
2021/10/19 02:26:04;;;;;;;;;;;4.80;99.90;;;;;;5090977;28;19916;-74
2021/10/19 02:28:30;;;;;;;;;;;4.80;99.90;;;;;;5091304;28;20376;-72
2021/10/19 02:30:55;;;;;;;;;;;4.80;99.90;;;;;;5091181;28;19909;-74
2021/10/19 02:33:21;;;;;;;;;;;4.90;99.90;;;;;;5091042;28;20359;-74
2021/10/19 02:35:47;;;;;;;;;;;4.90;99.90;;;;;;5089663;28;20330;-74
2021/10/19 02:38:13;;;;;;;;;;;5.00;99.90;;;;;;5086162;28;19916;-74
2021/10/19 02:40:38;;;;;;;;;;;5.00;99.90;;;;;;5090808;28;19934;-72
2021/10/19 02:43:04;;;;;;;;;;;5.30;99.90;;;;;;5091617;28;19916;-74
2021/10/19 02:45:30;;;;;;;;;;;5.40;99.90;;;;;;5094950;28;19909;-74
2021/10/19 02:47:55;;;;;;;;;;;5.30;99.90;;;;;;5095213;28;20010;-74
2021/10/19 02:50:21;;;;;;;;;;;5.30;99.90;;;;;;5094958;28;19946;-74
2021/10/19 02:52:46;;;;;;;;;;;5.30;99.90;;;;;;5094798;28;19915;-74
2021/10/19 02:55:13;;;;;;;;;;;5.40;99.90;;;;;;5094748;28;20608;-75
2021/10/19 02:57:38;;;;;;;;;;;5.40;99.90;;;;;;5095010;28;19914;-74
2021/10/19 03:00:05;;;;;;;;;;;5.40;99.90;;;;;;5094794;28;19908;-74
2021/10/19 03:02:31;;;;;;;;;;;5.50;99.90;;;;;;5093235;28;19943;-75
2021/10/19 03:04:56;;;;;;;;;;;5.50;99.90;;;;;;5094541;28;20361;-74
2021/10/19 03:07:22;;;;;;;;;;;5.50;99.90;;;;;;5089150;28;19938;-74
2021/10/19 03:09:47;;;;;;;;;;;5.40;99.90;;;;;;5093131;28;19908;-74
2021/10/19 03:12:13;;;;;;;;;;;5.40;99.90;;;;;;5092899;28;19915;-74
2021/10/19 03:14:38;;;;;;;;;;;5.30;99.90;;;;;;5094555;28;19912;-74
2021/10/19 03:17:04;;;;;;;;;;;5.30;99.90;;;;;;5094472;28;19908;-74
2021/10/19 03:19:29;;;;;;;;;;;5.30;99.90;;;;;;5094424;28;19908;-72
2021/10/19 03:21:55;;;;;;;;;;;5.30;99.90;;;;;;5094345;28;19970;-74
2021/10/19 03:24:20;;;;;;;;;;;5.40;99.90;;;;;;5093915;28;19919;-74
2021/10/19 03:26:46;;;;;;;;;;;5.40;99.90;;;;;;5092904;28;20283;-74
2021/10/19 03:29:11;;;;;;;;;;;5.60;99.90;;;;;;5094249;28;19931;-72
2021/10/19 03:31:37;;;;;;;;;;;5.50;99.90;;;;;;5094127;28;19908;-74
2021/10/19 03:34:03;;;;;;;;;;;5.60;99.90;;;;;;5093803;28;19999;-74
2021/10/19 03:36:29;;;;;;;;;;;5.70;99.90;;;;;;5091732;28;19915;-74
2021/10/19 03:38:54;;;;;;;;;;;5.70;99.90;;;;;;5091126;28;19913;-74
2021/10/19 03:41:20;;;;;;;;;;;5.70;99.90;;;;;;5093988;28;19915;-73
2021/10/19 03:43:45;;;;;;;;;;;5.90;99.90;;;;;;5092417;28;20265;-74
2021/10/19 03:46:11;;;;;;;;;;;6.00;99.90;;;;;;5094016;28;20044;-74
2021/10/19 03:48:36;;;;;;;;;;;6.20;99.90;;;;;;5093754;28;19908;-74
2021/10/19 03:51:02;;;;;;;;;;;6.20;99.90;;;;;;5094466;28;19912;-75
2021/10/19 03:53:27;;;;;;;;;;;6.20;99.90;;;;;;5093138;28;20548;-74
2021/10/19 03:55:55;;;;;;;;;;;6.20;99.90;;;;;;5093379;28;19908;-74
2021/10/19 03:58:21;;;;;;;;;;;6.10;99.90;;;;;;5093616;28;19934;-74
2021/10/19 04:00:46;;;;;;;;;;;6.20;99.90;;;;;;5093758;28;19912;-72
2021/10/19 04:03:12;;;;;;;;;;;6.10;99.90;;;;;;5093013;28;19908;-74
2021/10/19 04:05:37;;;;;;;;;;;6.20;99.90;;;;;;5093448;28;19966;-74
2021/10/19 04:08:03;;;;;;;;;;;6.50;99.90;;;;;;5087833;28;19912;-74
2021/10/19 04:10:28;;;;;;;;;;;6.60;99.90;;;;;;5093542;28;19912;-72
2021/10/19 04:12:54;;;;;;;;;;;6.80;99.90;;;;;;5093005;28;19912;-74
2021/10/19 04:15:19;;;;;;;;;;;6.70;99.90;;;;;;5093355;28;20002;-75
2021/10/19 04:17:45;;;;;;;;;;;6.70;99.90;;;;;;5093233;28;19949;-73
2021/10/19 04:20:11;;;;;;;;;;;6.70;99.90;;;;;;5093372;28;19931;-74
2021/10/19 04:22:36;;;;;;;;;;;6.70;99.90;;;;;;5092739;28;20361;-74
2021/10/19 04:25:02;;;;;;;;;;;6.80;99.90;;;;;;5091875;28;20324;-74
2021/10/19 04:27:27;;;;;;;;;;;7.00;99.90;;;;;;5093057;28;19912;-74
2021/10/19 04:29:53;;;;;;;;;;;7.10;99.90;;;;;;5093117;28;19908;-73
2021/10/19 04:32:18;;;;;;;;;;;7.10;99.90;;;;;;5092559;28;19919;-72
2021/10/19 04:34:44;;;;;;;;;;;7.00;99.90;;;;;;5091434;28;19909;-74
2021/10/19 04:37:10;;;;;;;;;;;7.00;99.90;;;;;;5086094;28;19909;-74
2021/10/19 04:39:35;;;;;;;;;;;6.90;99.90;;;;;;5092682;28;19908;-74
2021/10/19 04:42:02;;;;;;;;;;;6.70;99.90;;;;;;5091580;28;20280;-74
2021/10/19 04:44:28;;;;;;;;;;;6.80;99.90;;;;;;5092155;28;20342;-73
2021/10/19 04:46:54;;;;;;;;;;;6.80;99.90;;;;;;5092625;28;20003;-74
2021/10/19 04:49:19;;;;;;;;;;;7.00;99.90;;;;;;5092644;28;20411;-74
2021/10/19 04:51:45;;;;;;;;;;;7.20;99.90;;;;;;5092559;28;20391;-72
2021/10/19 04:54:10;;;;;;;;;;;7.20;99.90;;;;;;5090851;28;19947;-72
2021/10/19 04:56:36;;;;;;;;;;;7.20;99.90;;;;;;5092682;28;19908;-73
2021/10/19 04:59:01;;;;;;;;;;;7.30;99.90;;;;;;5091107;28;19985;-72
2021/10/19 05:01:27;;;;;;;;;;;7.30;99.90;;;;;;5092494;28;19909;-73
2021/10/19 05:03:53;;;;;;;;;;;7.30;99.90;;;;;;5091998;28;19908;-72
2021/10/19 05:06:18;;;;;;;;;;;7.30;99.90;;;;;;5090405;28;19966;-73
2021/10/19 05:08:44;;;;;;;;;;;7.30;99.90;;;;;;5087761;28;19916;-73
2021/10/19 05:11:10;;;;;;;;;;;7.50;99.90;;;;;;5112248;28;19908;-72
2021/10/19 05:13:35;;;;;;;;;;;7.70;99.90;;;;;;5112224;28;19922;-73
2021/10/19 05:16:01;;;;;;;;;;;7.90;99.90;;;;;;5111573;28;19908;-73
2021/10/19 05:18:27;;;;;;;;;;;8.20;99.90;;;;;;5112569;28;20326;-73
2021/10/19 05:20:52;;;;;;;;;;;8.20;99.90;;;;;;5112809;28;19933;-73
2021/10/19 05:23:18;;;;;;;;;;;8.20;99.90;;;;;;5112233;28;20042;-72
2021/10/19 05:25:43;;;;;;;;;;;8.60;99.90;;;;;;5112466;28;19914;-72
2021/10/19 05:28:09;;;;;;;;;;;8.90;99.90;;;;;;5112530;28;19961;-73
2021/10/19 05:30:35;;;;;;;;;;;8.90;99.90;;;;;;5112538;28;19915;-74
2021/10/19 05:33:03;;;;;;;;;;;8.80;99.90;;;;;;5112188;28;20054;-72
2021/10/19 05:35:29;;;;;;;;;;;8.80;99.90;;;;;;5110499;28;19961;-74
2021/10/19 05:37:56;;;;;;;;;;;8.80;99.90;;;;;;5092430;28;19919;-74
2021/10/19 05:40:21;;;;;;;;;;;8.90;99.90;;;;;;5091652;28;19908;-72
2021/10/19 05:42:47;;;;;;;;;;;8.80;99.90;;;;;;5090305;28;19931;-74
2021/10/19 05:45:12;;;;;;;;;;;8.90;99.90;;;;;;5091580;28;20003;-72
2021/10/19 05:47:41;;;;;;;;;;;8.90;99.90;;;;;;5091606;28;19912;-72
2021/10/19 05:50:06;;;;;;;;;;;9.00;99.90;;;;;;5091592;28;20013;-72
2021/10/19 05:52:32;;;;;;;;;;;9.00;99.90;;;;;;5091387;28;19908;-73
2021/10/19 05:54:57;;;;;;;;;;;8.90;99.90;;;;;;5091528;28;19982;-73
2021/10/19 05:57:23;;;;;;;;;;;8.80;99.90;;;;;;5091839;28;19915;-75
2021/10/19 05:59:49;;;;;;;;;;;8.90;99.90;;;;;;5091782;28;19912;-73
2021/10/19 06:02:14;;;;;;;;;;;8.90;99.90;;;;;;5091337;28;19962;-72
2021/10/19 06:04:39;;;;;;;;;;;8.90;99.90;;;;;;5091381;28;19998;-72
2021/10/19 06:07:05;;;;;;;;;;;9.00;99.90;;;;;;5086373;28;19912;-73
2021/10/19 06:09:30;;;;;;;;;;;9.00;99.90;;;;;;5091537;28;19934;-72
2021/10/19 06:11:56;;;;;;;;;;;9.10;99.90;;;;;;5091621;28;20384;-72
2021/10/19 06:14:23;;;;;;;;;;;9.10;99.90;;;;;;5091272;28;20372;-73
2021/10/19 06:16:48;;;;;;;;;;;9.10;99.90;;;;;;5091467;28;19999;-73
2021/10/19 06:19:14;;;;;;;;;;;9.10;99.90;;;;;;5089965;28;19962;-73
2021/10/19 06:21:40;;;;;;;;;;;9.20;99.90;;;;;;5090262;28;20329;-75
2021/10/19 06:24:06;;;;;;;;;;;9.20;99.90;;;;;;5091147;28;19908;-75
2021/10/19 06:26:34;;;;;;;;;;;9.30;99.90;;;;;;5091382;28;19912;-73
2021/10/19 06:29:00;;;;;;;;;;;9.40;99.90;;;;;;5091542;28;19908;-73
2021/10/19 06:31:26;;;;;;;;;;;9.40;99.90;;;;;;5091347;28;19915;-73
2021/10/19 06:33:51;;;;;;;;;;;9.50;99.90;;;;;;5090982;28;20460;-72
2021/10/19 06:36:17;;;;;;;;;;;9.50;99.90;;;;;;5091335;28;19961;-72
2021/10/19 06:38:42;;;;;;;;;;;9.50;99.90;;;;;;5091266;28;19931;-73
2021/10/19 06:41:08;;;;;;;;;;;9.50;99.90;;;;;;5091172;28;20280;-75
2021/10/19 06:43:36;;;;;;;;;;;9.50;99.90;;;;;;5085582;28;19920;-73
2021/10/19 06:46:03;;;;;;;;;;;9.50;99.90;;;;;;5090813;28;19912;-72
2021/10/19 06:48:28;;;;;;;;;;;9.60;99.90;;;;;;5089549;28;20396;-75
2021/10/19 06:50:54;;;;;;;;;;;9.70;99.90;;;;;;5087465;28;19912;-73
2021/10/19 06:53:20;;;;;;;;;;;9.70;99.90;;;;;;5087320;28;19927;-73
2021/10/19 06:55:45;;;;;;;;;;;9.70;99.90;;;;;;5089499;28;20340;-73
2021/10/19 06:58:11;;;;;;;;;;;9.80;99.90;;;;;;5090692;28;19961;-73
2021/10/19 07:00:37;;;;;;;;;;;9.80;99.90;;;;;;5090920;28;19916;-72
2021/10/19 07:03:02;;;;;;;;;;;9.80;99.90;;;;;;5089082;28;20347;-73
2021/10/19 07:05:28;;;;;;;;;;;9.90;99.90;;;;;;5090718;28;19919;-72
2021/10/19 07:07:53;;;;;;;;;;;9.90;99.90;;;;;;5085658;28;19919;-73
2021/10/19 07:10:20;;;;;;;;;;;9.90;99.90;;;;;;5090793;28;20003;-74
2021/10/19 07:12:46;;;;;;;;;;;9.80;99.90;;;;;;5084247;28;20376;-73
2021/10/19 07:15:12;;;;;;;;;;;9.80;99.90;;;;;;5090596;28;19916;-73
2021/10/19 07:17:38;;;;;;;;;;;9.80;99.90;;;;;;5091225;28;19908;-73
2021/10/19 07:20:07;;;;;;;;;;;9.80;99.90;;;;;;5090844;28;19913;-73
2021/10/19 07:22:33;;;;;;;;;;;10.00;99.90;;;;;;5089271;28;19908;-72
2021/10/19 07:24:59;;;;;;;;;;;10.20;99.90;;;;;;5090283;28;19915;-72
2021/10/19 07:27:25;;;;;;;;;;;10.40;99.90;;;;;;5090828;28;19912;-72
2021/10/19 07:29:50;;;;;;;;;;;10.70;99.90;;;;;;5091333;28;20395;-72
2021/10/19 07:32:16;;;;;;;;;;;10.70;99.90;;;;;;5094501;28;19912;-73
2021/10/19 07:34:41;;;;;;;;;;;10.70;99.90;;;;;;5094268;28;19909;-72
2021/10/19 07:37:07;;;;;;;;;;;10.70;99.90;;;;;;5089095;28;19908;-72
2021/10/19 07:39:32;;;;;;;;;;;10.70;99.90;;;;;;5093881;28;20364;-73
2021/10/19 07:41:58;;;;;;;;;;;10.80;99.90;;;;;;5094242;28;19955;-74
2021/10/19 07:44:23;;;;;;;;;;;10.80;99.90;;;;;;5093700;28;19954;-72
2021/10/19 07:46:51;;;;;;;;;;;10.80;99.90;;;;;;5094045;28;19916;-73
2021/10/19 07:49:18;;;;;;;;;;;11.00;99.90;;;;;;5093983;28;19931;-73
2021/10/19 07:51:44;;;;;;;;;;;11.10;99.90;;;;;;5093684;28;19916;-74
2021/10/19 07:54:10;;;;;;;;;;;11.10;99.90;;;;;;5092195;28;19908;-74
2021/10/19 07:56:35;;;;;;;;;;;11.10;99.90;;;;;;5106613;28;19907;-72
2021/10/19 07:59:05;;;;;;;;;;;11.00;99.90;;;;;;5114092;28;19943;-73
2021/10/19 08:01:30;;;;;;;;;;;11.10;99.90;;;;;;5099876;28;19919;-73
2021/10/19 08:03:56;;;;;;;;;;;11.00;99.90;;;;;;5093040;28;19961;-73
2021/10/19 08:06:21;;;;;;;;;;;11.00;99.90;;;;;;5092039;28;20094;-72
2021/10/19 08:08:47;;;;;;;;;;;11.00;99.90;;;;;;5090352;28;19909;-73
2021/10/19 08:11:13;;;;;;;;;;;11.10;99.90;;;;;;5111731;28;19908;-74
2021/10/19 08:13:38;;;;;;;;;;;11.10;99.90;;;;;;5092729;28;20368;-75
2021/10/19 08:16:04;;;;;;;;;;;11.20;99.90;;;;;;5093575;28;19918;-73
2021/10/19 08:18:29;;;;;;;;;;;11.30;99.90;;;;;;5093350;28;19912;-72
2021/10/19 08:20:55;;;;;;;;;;;11.50;99.90;;;;;;5093382;28;19908;-73
2021/10/19 08:23:21;;;;;;;;;;;11.60;99.90;;;;;;5092832;28;19932;-73
2021/10/19 08:25:47;;;;;;;;;;;11.70;99.90;;;;;;5093196;28;19961;-73
2021/10/19 08:28:23;;;;;;;;;;;11.70;99.90;;;;;;5091756;28;19912;-73
2021/10/19 08:30:49;;;;;;;;;;;11.70;99.90;;;;;;5093281;28;19908;-73
2021/10/19 08:33:14;;;;;;;;;;;11.80;99.90;;;;;;5091082;28;19908;-73
2021/10/19 08:35:40;;;;;;;;;;;11.70;99.90;;;;;;5092974;28;19908;-73
2021/10/19 08:38:05;;;;;;;;;;;11.50;99.90;;;;;;5087626;28;19915;-73
2021/10/19 08:40:31;;;;;;;;;;;11.30;99.90;;;;;;5092932;28;19908;-74
2021/10/19 08:42:57;;;;;;;;;;;11.50;99.90;;;;;;5092436;28;20006;-73
2021/10/19 08:45:23;;;;;;;;;;;11.40;99.90;;;;;;5093076;28;19909;-73
2021/10/19 08:47:49;;;;;;;;;;;11.60;99.90;;;;;;5093337;28;19939;-72
2021/10/19 08:50:15;;;;;;;;;;;11.70;99.90;;;;;;5093356;28;19931;-73
2021/10/19 08:52:41;;;;;;;;;;;11.70;99.90;;;;;;5092635;28;20370;-73
2021/10/19 08:55:07;;;;;;;;;;;11.70;99.90;;;;;;5090913;28;19952;-73
2021/10/19 08:57:33;;;;;;;;;;;11.70;99.90;;;;;;5092314;28;19915;-73
2021/10/19 08:59:58;;;;;;;;;;;11.70;99.90;;;;;;5093028;28;19915;-73
2021/10/19 09:02:48;;;;;;;;;;;11.60;99.90;;;;;;5092539;28;20357;-73
2021/10/19 09:05:16;;;;;;;;;;;11.70;99.90;;;;;;5092406;28;19912;-73
2021/10/19 09:08:00;;;;;;;;;;;11.70;99.90;;;;;;5087389;28;19912;-74
2021/10/19 09:10:27;;;;;;;;;;;11.60;99.90;;;;;;5092308;28;19908;-75
2021/10/19 09:12:56;;;;;;;;;;;11.50;99.90;;;;;;5095002;28;19908;-73
2021/10/19 09:15:25;;;;;;;;;;;11.50;99.90;;;;;;5112301;28;19915;-73
2021/10/19 09:17:51;;;;;;;;;;;11.60;99.90;;;;;;5112534;28;19918;-73
2021/10/19 09:20:18;;;;;;;;;;;11.70;99.90;;;;;;5112483;28;19908;-73
2021/10/19 09:22:53;;;;;;;;;;;11.70;99.90;;;;;;5112141;28;19988;-73
2021/10/19 09:25:32;;;;;;;;;;;11.80;99.90;;;;;;5112425;28;19911;-73
2021/10/19 09:28:00;;;;;;;;;;;11.90;99.90;;;;;;5112459;28;20283;-72
2021/10/19 09:30:40;;;;;;;;;;;12.10;99.90;;;;;;5110933;28;19915;-72
2021/10/19 09:33:06;;;;;;;;;;;12.10;99.90;;;;;;5111764;28;19912;-73
2021/10/19 09:35:33;;;;;;;;;;;12.20;99.90;;;;;;5112106;28;19908;-73
2021/10/19 09:38:04;;;;;;;;;;;12.30;99.90;;;;;;5091817;28;19908;-74
2021/10/19 09:40:34;;;;;;;;;;;12.30;99.90;;;;;;5091790;28;19915;-73
2021/10/19 09:43:01;;;;;;;;;;;12.20;99.90;;;;;;5091428;28;20387;-74
2021/10/19 09:45:26;;;;;;;;;;;12.30;99.90;;;;;;5091559;28;19908;-73
2021/10/19 09:47:53;;;;;;;;;;;12.20;99.90;;;;;;5091677;28;20002;-73
2021/10/19 09:50:20;;;;;;;;;;;12.20;99.90;;;;;;5091832;28;19919;-74
2021/10/19 09:52:46;;;;;;;;;;;12.20;99.90;;;;;;5090614;28;19947;-72
2021/10/19 09:55:13;;;;;;;;;;;12.10;99.90;;;;;;5089581;28;19908;-73
2021/10/19 09:57:38;;;;;;;;;;;12.00;99.90;;;;;;5098968;28;19969;-73
2021/10/19 10:00:05;;;;;;;;;;;12.00;99.90;;;;;;5111737;28;20376;-74
2021/10/19 10:02:31;;;;;;;;;;;11.90;99.90;;;;;;5099160;28;19908;-73
2021/10/19 10:04:57;;;;;;;;;;;12.00;99.90;;;;;;5111832;28;19957;-73
2021/10/19 10:07:29;;;;;;;;;;;12.00;99.90;;;;;;5096665;28;19916;-73
2021/10/19 10:09:55;;;;;;;;;;;12.10;99.90;;;;;;5087138;28;20407;-72
2021/10/19 10:12:28;;;;;;;;;;;12.00;99.90;;;;;;5084934;28;20353;-73
2021/10/19 10:14:53;;;;;;;;;;;11.90;99.90;;;;;;5091090;28;20360;-72
2021/10/19 10:17:19;;;;;;;;;;;11.80;99.90;;;;;;5091565;28;20239;-72
2021/10/19 10:19:44;;;;;;;;;;;11.90;99.90;;;;;;5090078;28;19908;-72
2021/10/19 10:22:17;;;;;;;;;;;11.80;99.90;;;;;;5091324;28;19908;-74
2021/10/19 10:24:43;;;;;;;;;;;12.00;99.90;;;;;;5091267;28;19908;-72
2021/10/19 10:27:09;;;;;;;;;;;12.20;99.90;;;;;;5091168;28;19912;-72
2021/10/19 10:29:42;;;;;;;;;;;12.50;99.90;;;;;;5091395;28;19934;-72
2021/10/19 10:32:19;;;;;;;;;;;12.60;99.90;;;;;;5091219;28;19915;-76
2021/10/19 10:34:44;;;;;;;;;;;12.70;99.90;;;;;;5089727;28;19909;-74
2021/10/19 10:37:11;;;;;;;;;;;12.80;99.90;;;;;;5086003;28;19915;-72
2021/10/19 10:39:42;;;;;;;;;;;12.80;99.90;;;;;;5097556;28;19960;-73
2021/10/19 10:42:09;;;;;;;;;;;13.00;99.90;;;;;;5112356;28;19923;-77
2021/10/19 10:44:36;;;;;;;;;;;13.00;99.90;;;;;;5109728;28;19914;-72
2021/10/19 10:47:04;;;;;;;;;;;13.00;99.90;;;;;;5111473;28;19912;-72
2021/10/19 10:49:31;;;;;;;;;;;12.90;99.90;;;;;;5111436;28;19918;-72
2021/10/19 10:51:56;;;;;;;;;;;12.80;99.90;;;;;;5109986;28;19907;-75
2021/10/19 10:54:23;;;;;;;;;;;13.00;99.90;;;;;;5110817;28;19915;-73
2021/10/19 10:56:50;;;;;;;;;;;13.00;99.90;;;;;;5091667;28;19916;-74
2021/10/19 10:59:26;;;;;;;;;;;13.40;99.90;;;;;;5091030;28;19908;-72
2021/10/19 11:01:53;;;;;;;;;;;13.80;99.90;;;;;;5090857;28;19912;-75
2021/10/19 11:04:19;;;;;;;;;;;14.40;99.90;;;;;;5089424;28;20508;-73
2021/10/19 11:06:44;;;;;;;;;;;14.60;99.90;;;;;;5089364;28;19924;-72
2021/10/19 11:09:14;;;;;;;;;;;14.30;99.90;;;;;;5096254;28;20023;-73
2021/10/19 11:11:41;;;;;;;;;;;14.50;99.90;;;;;;5092707;28;19959;-72
2021/10/19 11:14:09;;;;;;;;;;;14.60;99.90;;;;;;5092820;28;19966;-73
2021/10/19 11:16:38;;;;;;;;;;;15.00;99.90;;;;;;5094465;28;19908;-72
2021/10/19 11:19:04;;;;;;;;;;;14.90;99.90;;;;;;5095061;28;19912;-73
2021/10/19 11:21:30;;;;;;;;;;;15.00;99.90;;;;;;5087886;28;19951;-73
2021/10/19 11:23:56;;;;;;;;;;;15.10;99.90;;;;;;5086219;28;19912;-73
2021/10/19 11:26:22;;;;;;;;;;;15.00;99.90;;;;;;5081795;28;19953;-75
2021/10/19 11:28:47;;;;;;;;;;;14.90;99.90;;;;;;5086306;28;19908;-74
2021/10/19 11:31:13;;;;;;;;;;;14.60;99.90;;;;;;5094015;28;19915;-72
2021/10/19 11:33:40;;;;;;;;;;;14.10;99.90;;;;;;5092018;28;20388;-73
2021/10/19 11:36:06;;;;;;;;;;;14.10;99.90;;;;;;5093671;28;19912;-73
2021/10/19 11:38:32;;;;;;;;;;;14.20;99.90;;;;;;5102859;28;19908;-73
2021/10/19 11:41:08;;;;;;;;;;;14.10;99.90;;;;;;5109601;28;19911;-74
2021/10/19 11:43:35;;;;;;;;;;;14.00;99.90;;;;;;5113625;28;19994;-76
2021/10/19 11:46:05;;;;;;;;;;;14.10;99.90;;;;;;5113899;28;19907;-73
2021/10/19 11:48:30;;;;;;;;;;;14.00;99.90;;;;;;5093008;28;19916;-73
2021/10/19 11:50:56;;;;;;;;;;;13.90;99.90;;;;;;5098727;28;19908;-77
2021/10/19 11:53:21;;;;;;;;;;;13.90;99.90;;;;;;5103436;28;19915;-72
2021/10/19 11:55:53;;;;;;;;;;;13.80;99.90;;;;;;5102623;28;19914;-74
2021/10/19 11:58:21;;;;;;;;;;;13.70;99.90;;;;;;5093502;28;19909;-74
2021/10/19 12:00:50;;;;;;;;;;;13.60;99.90;;;;;;5101532;28;19915;-73
2021/10/19 12:03:15;;;;;;;;;;;13.60;99.90;;;;;;5111398;28;19912;-73
2021/10/19 12:05:42;;;;;;;;;;;13.90;99.90;;;;;;5112319;28;19916;-73
2021/10/19 12:08:09;;;;;;;;;;;14.10;99.90;;;;;;5091828;28;19975;-72
2021/10/19 12:10:34;;;;;;;;;;;14.30;99.90;;;;;;5093415;28;19908;-73
2021/10/19 12:13:07;;;;;;;;;;;14.30;99.90;;;;;;5091201;28;19915;-71
2021/10/19 12:15:35;;;;;;;;;;;14.30;99.90;;;;;;5091939;28;19991;-71
2021/10/19 12:18:02;;;;;;;;;;;14.30;99.90;;;;;;5092935;28;20292;-72
2021/10/19 12:20:33;;;;;;;;;;;14.20;99.90;;;;;;5092989;28;20314;-70
2021/10/19 12:23:00;;;;;;;;;;;14.10;99.90;;;;;;5092416;28;20377;-70
2021/10/19 12:25:26;;;;;;;;;;;14.00;99.90;;;;;;5092748;28;20387;-72
2021/10/19 12:27:51;;;;;;;;;;;14.10;99.90;;;;;;5092659;28;19912;-72
2021/10/19 12:30:17;;;;;;;;;;;14.20;99.90;;;;;;5092759;28;19939;-73
2021/10/19 12:32:43;;;;;;;;;;;14.30;99.90;;;;;;5091335;28;20245;-71
2021/10/19 12:35:10;;;;;;;;;;;14.40;99.90;;;;;;5092624;28;19919;-71
2021/10/19 12:37:36;;;;;;;;;;;14.60;99.90;;;;;;5094252;28;20325;-72
2021/10/19 12:40:03;;;;;;;;;;;14.70;99.90;;;;;;5104480;28;20044;-72
2021/10/19 12:42:29;;;;;;;;;;;14.70;99.90;;;;;;5111063;28;19907;-75
2021/10/19 12:44:54;;;;;;;;;;;14.90;99.90;;;;;;5112987;28;19916;-71
2021/10/19 12:47:20;;;;;;;;;;;15.00;99.90;;;;;;5092663;28;19916;-72
2021/10/19 12:49:46;;;;;;;;;;;15.20;99.90;;;;;;5098310;28;19907;-73
2021/10/19 12:52:11;;;;;;;;;;;15.60;99.90;;;;;;5112897;28;19907;-75
2021/10/19 12:54:37;;;;;;;;;;;16.10;99.90;;;;;;5099233;28;20007;-72
2021/10/19 12:57:02;;;;;;;;;;;16.40;99.90;;;;;;5109438;28;20245;-72
2021/10/19 12:59:28;;;;;;;;;;;16.60;99.90;;;;;;5112864;28;20302;-72
2021/10/19 13:01:58;;;;;;;;;;;16.70;99.90;;;;;;5112566;28;19914;-76
2021/10/19 13:04:24;;;;;;;;;;;16.70;99.90;;;;;;5112415;28;19908;-72
2021/10/19 13:06:50;;;;;;;;;;;16.90;99.90;;;;;;5101757;28;20273;-71
2021/10/19 13:09:15;;;;;;;;;;;16.80;99.90;;;;;;5090212;28;20292;-72
2021/10/19 13:11:42;;;;;;;;;;;16.90;99.90;;;;;;5085624;28;19909;-72
2021/10/19 13:14:07;;;;;;;;;;;17.00;99.90;;;;;;5090600;28;19961;-71
2021/10/19 13:16:33;;;;;;;;;;;16.90;99.90;;;;;;5092044;28;20326;-72
2021/10/19 13:18:58;;;;;;;;;;;16.60;99.90;;;;;;5091741;28;19909;-72
2021/10/19 13:21:24;;;;;;;;;;;16.40;99.90;;;;;;5091880;28;19908;-72
2021/10/19 13:23:49;;;;;;;;;;;16.40;99.90;;;;;;5091285;28;20136;-72
2021/10/19 13:26:15;;;;;;;;;;;16.20;99.90;;;;;;5091294;28;20355;-73
2021/10/19 13:28:41;;;;;;;;;;;16.00;99.90;;;;;;5089612;28;19912;-72
2021/10/19 13:31:06;;;;;;;;;;;16.00;99.90;;;;;;5090572;28;19958;-74
2021/10/19 13:33:32;;;;;;;;;;;16.10;99.90;;;;;;5091231;28;19908;-72
2021/10/19 13:36:01;;;;;;;;;;;16.00;99.90;;;;;;5091564;28;19915;-72
2021/10/19 13:38:27;;;;;;;;;;;16.10;99.90;;;;;;5086139;28;19915;-72
2021/10/19 13:40:52;;;;;;;;;;;16.10;99.90;;;;;;5084537;28;19908;-75
2021/10/19 13:43:18;;;;;;;;;;;16.10;99.90;;;;;;5091010;28;20272;-72
2021/10/19 13:45:45;;;;;;;;;;;16.10;99.90;;;;;;5097895;28;20283;-72
2021/10/19 13:48:11;;;;;;;;;;;16.10;99.90;;;;;;5101099;28;19919;-72
2021/10/19 13:50:37;;;;;;;;;;;16.10;99.90;;;;;;5091192;28;19908;-73
2021/10/19 13:53:03;;;;;;;;;;;16.10;99.90;;;;;;5091432;28;19934;-72
2021/10/19 13:55:29;;;;;;;;;;;16.10;99.90;;;;;;5089290;28;19933;-73
2021/10/19 13:57:54;;;;;;;;;;;16.10;99.90;;;;;;5089805;28;20326;-71
2021/10/19 14:00:20;;;;;;;;;;;16.00;99.90;;;;;;5089588;28;19908;-72
2021/10/19 14:02:45;;;;;;;;;;;16.10;99.90;;;;;;5105972;28;19943;-72
2021/10/19 14:05:11;;;;;;;;;;;16.20;99.90;;;;;;5110880;28;19961;-75
2021/10/19 14:07:37;;;;;;;;;;;16.20;99.90;;;;;;5110277;28;20052;-72
2021/10/19 14:10:03;;;;;;;;;;;16.20;99.90;;;;;;5098514;28;19908;-72
2021/10/19 14:12:28;;;;;;;;;;;16.20;99.90;;;;;;5084312;28;20010;-71
2021/10/19 14:14:54;;;;;;;;;;;16.20;99.90;;;;;;5090884;28;20002;-72
2021/10/19 14:17:21;;;;;;;;;;;16.20;99.90;;;;;;5090916;28;19919;-75
2021/10/19 14:19:49;;;;;;;;;;;16.10;99.90;;;;;;5091150;28;20352;-72